East Franklin, Vermont
Current Conditions -  °F | °C
As of 6:35 PM on Wednesday 22 Oct 2014 (Local Time) from KFSO Reporting Station
Broken Clouds Broken Clouds  
Wind Chill: 52°   Ceiling: 8000
Heat Index: 52°   Visibility: 10mi
Dew Point: 40°   Wind: 10mph
Humidity: 63%   Direction: 10°N
Pressure: 30.17"   Gusts: 17mph
Location:  44.9656°N, 72.8975°W
Report Text: KFSO 222235Z AUTO 01009G15KT 10SM BKN080 11/04 A3017 RMK AO2 T01110044
Loading
Personal Weather Stations






























Interactive Weather Map
Tropical Storm Tracking
New forecast layout! Learn more

10-Day Weather Forecast

Advertisements
Track Severe Weather on mobile